KSAC/SAC METAR and TAF weather

Enter ICAO airport designator
Station Type Date Time Source
KSAC METAR 2022/06/28 09:53 UTC NOAA

KSAC 280953Z AUTO 17003KT 10SM CLR 18/10 A2998 RMK AO2 SLP153 T01780100


Station Type Date Time Source
KSAC Decoded METAR 2022/06/28 09:53 UTC NOAA

SACRAMENTO EXECUTIVE AIRPORT , CA, United States (KSAC) 38-30N 121-30W 11M
Jun 28, 2022 - 05:53 AM EDT / 2022.06.28 0953 UTC
Wind: from the S (170 degrees) at 3 MPH (3 KT):0
Visibility: 10 mile(s):0
Sky conditions: clear
Temperature: 64.0 F (17.8 C)
Dew Point: 50.0 F (10.0 C)
Relative Humidity: 60%
Pressure (altimeter): 29.98 in. Hg (1015 hPa)
ob: KSAC 280953Z AUTO 17003KT 10SM CLR 18/10 A2998 RMK AO2 SLP153 T01780100
cycle: 10

Station Type Date Time Source
KSAC TAF 2022/06/28 06:22 UTC NOAA

TAF KSAC 280520Z 2806/2906 21005KT P6SM SKC
FM282200 21009G15KT P6SM SKC

Example: see airport list